This is the latest recevied weather packets stored in our database for station/object DPX206-15. If no packets are shown the sender has not sent any weather packets the latest 10 day(s).
| Time | Temp. | Humidity | Pressure | Rain* | Wind** | Luminosity | Snow |
|---|---|---|---|---|---|---|---|
| 1777466567 | 13.33° C | 36% | 1029.9 hPa | 0 mm | - | 667 W/m² | - |
| 1777465817 | 13.33° C | 35% | 1030.1 hPa | 0 mm | - | 708 W/m² | - |
| 1777465066 | 13.33° C | 35% | 1030.1 hPa | 0 mm | - | 724 W/m² | - |
| 1777464316 | 13.33° C | 36% | 1030.2 hPa | 0 mm | - | 742 W/m² | - |
| 1777463565 | 13.33° C | 36% | 1030 hPa | 0 mm | - | 742 W/m² | - |
| 1777462815 | 13.33° C | 36% | 1030.1 hPa | 0 mm | - | 766 W/m² | - |
| 1777462065 | 13.33° C | 36% | 1030.2 hPa | 0 mm | - | 784 W/m² | - |
| 1777461315 | 13.33° C | 37% | 1030.2 hPa | 0 mm | - | 755 W/m² | - |
| 1777460564 | 12.78° C | 36% | 1030.2 hPa | 0 mm | - | 756 W/m² | - |
| 1777459814 | 12.78° C | 36% | 1030.2 hPa | 0 mm | - | 800 W/m² | - |
| 1777459064 | 12.78° C | 38% | 1030.1 hPa | 0 mm | - | 793 W/m² | - |
| 1777458313 | 12.78° C | 40% | 1030.2 hPa | 0 mm | - | 795 W/m² | - |
| 1777457563 | 12.78° C | 39% | 1030.3 hPa | 0 mm | - | 779 W/m² | - |
| 1777456813 | 12.78° C | 42% | 1029.9 hPa | 0 mm | - | 734 W/m² | - |
| 1777456062 | 12.78° C | 44% | 1030.2 hPa | 0 mm | - | 737 W/m² | - |
| 1777455312 | 12.22° C | 45% | 1029.8 hPa | 0 mm | - | 699 W/m² | - |
| 1777454562 | 11.67° C | 45% | 1029.9 hPa | 0 mm | - | 666 W/m² | - |
| 1777453812 | 11.67° C | 46% | 1030.1 hPa | 0 mm | - | 666 W/m² | - |
| 1777453062 | 11.67° C | 47% | 1030.1 hPa | 0 mm | - | 640 W/m² | - |
| 1777452311 | 11.67° C | 48% | 1029.9 hPa | 0 mm | - | 596 W/m² | - |
| 1777451561 | 12.22° C | 44% | 1030.1 hPa | 0 mm | - | 560 W/m² | - |
| 1777450811 | 11.67° C | 49% | 1030 hPa | 0 mm | - | 530 W/m² | - |
| 1777450061 | 11.67° C | 48% | 1030.1 hPa | 0 mm | - | 498 W/m² | - |
| 1777449310 | 10.56° C | 49% | 1029.6 hPa | 0 mm | - | 446 W/m² | - |
| 1777448560 | 10.56° C | 49% | 1029.6 hPa | 0 mm | - | 389 W/m² | - |
* Rain latest hour (hover to see other rain measurements)
** Current wind speed in m/s (hover to see current wind gust speed)